LFBA/AGF METAR and TAF weather

Enter ICAO airport designator
Station Type Date Time Source
LFBA METAR 2019/12/09 13:30 UTC NOAA

LFBA 091330Z AUTO 32019G29KT 4000 R29/1100U -RA BR SCT022 BKN032 OVC054 09/06 Q1023 BECMG 9999 NSW FEW030 SCT050TCU SCT060


Station Type Date Time Source
LFBA Decoded METAR 2019/12/09 13:30 UTC NOAA

Agen, France (LFBA) 44-11N 000-36E 60M
Dec 09, 2019 - 08:30 AM EST / 2019.12.09 1330 UTC
Wind: from the NW (320 degrees) at 22 MPH (19 KT) gusting to 33 MPH (29 KT):0
Visibility: 2 mile(s):0
Sky conditions: overcast
Weather: light rain; mist; Towering cumulus clouds observed
Temperature: 48 F (9 C)
Dew Point: 42 F (6 C)
Relative Humidity: 81%
Pressure (altimeter): 30.21 in. Hg (1023 hPa)
ob: LFBA 091330Z AUTO 32019G29KT 4000 R29/1100U -RA BR SCT022 BKN032 OVC054 09/06 Q1023 BECMG 9999 NSW FEW030 SCT050TCU SCT060
cycle: 13

Station Type Date Time Source
LFBA TAF 2014/12/22 20:03 UTC NOAA

TAF
AMD TAF
AMD LFBA 222037Z 2220/2224 12007KT 0400 FG VV///
TEMPO 2220/2224 0100 PROB30
TEMPO 2222/2224 FZFG

Example: see airport list